sensor_id;sensor_type;location;lat;lon;timestamp;P1;durP1;ratioP1;P2;durP2;ratioP2
36303;SDS011;22335;49.800;8.596;2023-05-29T00:06:26;6.72;;;6.00;;
36303;SDS011;22335;49.800;8.596;2023-05-29T00:13:10;6.18;;;5.68;;
36303;SDS011;22335;49.800;8.596;2023-05-29T00:19:55;6.05;;;5.53;;
36303;SDS011;22335;49.800;8.596;2023-05-29T00:26:39;6.60;;;5.90;;
36303;SDS011;22335;49.800;8.596;2023-05-29T00:33:23;8.65;;;6.10;;
36303;SDS011;22335;49.800;8.596;2023-05-29T00:40:08;7.20;;;6.05;;
36303;SDS011;22335;49.800;8.596;2023-05-29T00:46:53;6.95;;;6.07;;
36303;SDS011;22335;49.800;8.596;2023-05-29T00:53:38;6.75;;;6.15;;
36303;SDS011;22335;49.800;8.596;2023-05-29T01:00:23;6.50;;;5.53;;
36303;SDS011;22335;49.800;8.596;2023-05-29T01:07:07;8.32;;;5.65;;
36303;SDS011;22335;49.800;8.596;2023-05-29T01:13:50;7.55;;;5.57;;
36303;SDS011;22335;49.800;8.596;2023-05-29T01:20:41;9.55;;;5.82;;
36303;SDS011;22335;49.800;8.596;2023-05-29T01:27:31;8.48;;;6.60;;
36303;SDS011;22335;49.800;8.596;2023-05-29T01:34:15;7.15;;;6.15;;
36303;SDS011;22335;49.800;8.596;2023-05-29T01:40:59;15.63;;;14.32;;
36303;SDS011;22335;49.800;8.596;2023-05-29T01:47:44;8.85;;;8.07;;
36303;SDS011;22335;49.800;8.596;2023-05-29T01:54:28;12.02;;;10.00;;
36303;SDS011;22335;49.800;8.596;2023-05-29T02:01:12;7.32;;;6.30;;
36303;SDS011;22335;49.800;8.596;2023-05-29T02:07:57;9.13;;;6.30;;
36303;SDS011;22335;49.800;8.596;2023-05-29T02:14:40;7.25;;;6.13;;
36303;SDS011;22335;49.800;8.596;2023-05-29T02:21:24;8.10;;;6.20;;
36303;SDS011;22335;49.800;8.596;2023-05-29T02:28:09;7.05;;;6.35;;
36303;SDS011;22335;49.800;8.596;2023-05-29T02:34:53;7.30;;;6.65;;
36303;SDS011;22335;49.800;8.596;2023-05-29T02:41:37;6.60;;;6.00;;
36303;SDS011;22335;49.800;8.596;2023-05-29T03:03:25;9.02;;;6.43;;
36303;SDS011;22335;49.800;8.596;2023-05-29T03:10:08;6.93;;;6.32;;
36303;SDS011;22335;49.800;8.596;2023-05-29T03:16:53;9.32;;;6.65;;
36303;SDS011;22335;49.800;8.596;2023-05-29T03:23:38;7.40;;;6.63;;
36303;SDS011;22335;49.800;8.596;2023-05-29T03:30:21;8.32;;;6.75;;
36303;SDS011;22335;49.800;8.596;2023-05-29T03:37:07;6.80;;;6.20;;
36303;SDS011;22335;49.800;8.596;2023-05-29T03:43:52;7.53;;;6.72;;
36303;SDS011;22335;49.800;8.596;2023-05-29T03:50:39;7.20;;;6.05;;
36303;SDS011;22335;49.800;8.596;2023-05-29T03:57:22;8.20;;;6.60;;
36303;SDS011;22335;49.800;8.596;2023-05-29T04:04:08;9.52;;;6.68;;
36303;SDS011;22335;49.800;8.596;2023-05-29T04:10:52;7.82;;;6.53;;
36303;SDS011;22335;49.800;8.596;2023-05-29T04:17:37;7.55;;;6.38;;
36303;SDS011;22335;49.800;8.596;2023-05-29T04:24:22;8.55;;;6.70;;
36303;SDS011;22335;49.800;8.596;2023-05-29T04:31:06;7.28;;;6.57;;
36303;SDS011;22335;49.800;8.596;2023-05-29T04:37:55;7.38;;;6.57;;
36303;SDS011;22335;49.800;8.596;2023-05-29T04:44:44;7.40;;;6.53;;
36303;SDS011;22335;49.800;8.596;2023-05-29T04:51:28;8.00;;;6.70;;
36303;SDS011;22335;49.800;8.596;2023-05-29T04:58:12;12.68;;;9.80;;
36303;SDS011;22335;49.800;8.596;2023-05-29T05:04:57;9.50;;;7.03;;
36303;SDS011;22335;49.800;8.596;2023-05-29T05:11:41;7.25;;;6.50;;
36303;SDS011;22335;49.800;8.596;2023-05-29T05:18:25;7.82;;;6.47;;
36303;SDS011;22335;49.800;8.596;2023-05-29T05:25:16;7.97;;;6.85;;
36303;SDS011;22335;49.800;8.596;2023-05-29T05:32:00;7.97;;;7.17;;
36303;SDS011;22335;49.800;8.596;2023-05-29T05:38:44;7.47;;;6.68;;
36303;SDS011;22335;49.800;8.596;2023-05-29T05:45:29;8.32;;;6.53;;
36303;SDS011;22335;49.800;8.596;2023-05-29T05:58:58;7.00;;;6.30;;
36303;SDS011;22335;49.800;8.596;2023-05-29T06:05:44;7.70;;;6.55;;
36303;SDS011;22335;49.800;8.596;2023-05-29T06:12:28;7.80;;;7.00;;
36303;SDS011;22335;49.800;8.596;2023-05-29T06:19:22;8.77;;;7.03;;
36303;SDS011;22335;49.800;8.596;2023-05-29T06:26:12;9.43;;;8.13;;
36303;SDS011;22335;49.800;8.596;2023-05-29T06:32:57;8.07;;;6.72;;
36303;SDS011;22335;49.800;8.596;2023-05-29T06:39:45;6.78;;;6.18;;
36303;SDS011;22335;49.800;8.596;2023-05-29T06:46:30;7.53;;;6.50;;
36303;SDS011;22335;49.800;8.596;2023-05-29T06:53:15;7.40;;;6.10;;
36303;SDS011;22335;49.800;8.596;2023-05-29T07:00:02;9.73;;;7.03;;
36303;SDS011;22335;49.800;8.596;2023-05-29T07:06:53;6.75;;;6.00;;
36303;SDS011;22335;49.800;8.596;2023-05-29T07:13:38;6.32;;;5.75;;
36303;SDS011;22335;49.800;8.596;2023-05-29T07:20:22;7.55;;;5.63;;
36303;SDS011;22335;49.800;8.596;2023-05-29T07:27:08;6.10;;;5.60;;
36303;SDS011;22335;49.800;8.596;2023-05-29T07:33:51;6.63;;;5.55;;
36303;SDS011;22335;49.800;8.596;2023-05-29T07:40:36;6.40;;;5.70;;
36303;SDS011;22335;49.800;8.596;2023-05-29T07:47:26;7.75;;;6.00;;
36303;SDS011;22335;49.800;8.596;2023-05-29T07:54:10;6.83;;;5.97;;
36303;SDS011;22335;49.800;8.596;2023-05-29T08:00:54;6.95;;;5.68;;
36303;SDS011;22335;49.800;8.596;2023-05-29T08:07:39;7.13;;;6.15;;
36303;SDS011;22335;49.800;8.596;2023-05-29T08:14:24;5.53;;;5.03;;
36303;SDS011;22335;49.800;8.596;2023-05-29T08:21:08;5.60;;;4.75;;
36303;SDS011;22335;49.800;8.596;2023-05-29T08:27:54;6.60;;;5.22;;
36303;SDS011;22335;49.800;8.596;2023-05-29T08:34:37;7.68;;;4.60;;
36303;SDS011;22335;49.800;8.596;2023-05-29T08:41:25;5.63;;;4.47;;
36303;SDS011;22335;49.800;8.596;2023-05-29T08:48:14;7.78;;;5.50;;
36303;SDS011;22335;49.800;8.596;2023-05-29T08:55:01;7.20;;;5.00;;
36303;SDS011;22335;49.800;8.596;2023-05-29T09:01:45;6.55;;;4.80;;
36303;SDS011;22335;49.800;8.596;2023-05-29T09:08:30;6.45;;;3.90;;
36303;SDS011;22335;49.800;8.596;2023-05-29T09:15:17;4.17;;;3.77;;
36303;SDS011;22335;49.800;8.596;2023-05-29T09:22:02;5.38;;;3.60;;
36303;SDS011;22335;49.800;8.596;2023-05-29T09:28:50;6.25;;;4.03;;
36303;SDS011;22335;49.800;8.596;2023-05-29T09:35:34;6.00;;;3.80;;
36303;SDS011;22335;49.800;8.596;2023-05-29T09:42:18;6.93;;;4.05;;
36303;SDS011;22335;49.800;8.596;2023-05-29T09:49:09;4.60;;;3.65;;
36303;SDS011;22335;49.800;8.596;2023-05-29T09:55:55;4.78;;;3.70;;
36303;SDS011;22335;49.800;8.596;2023-05-29T10:02:40;7.43;;;3.53;;
36303;SDS011;22335;49.800;8.596;2023-05-29T10:09:25;3.65;;;3.20;;
36303;SDS011;22335;49.800;8.596;2023-05-29T10:16:10;5.40;;;3.60;;
36303;SDS011;22335;49.800;8.596;2023-05-29T10:22:55;5.27;;;3.40;;
36303;SDS011;22335;49.800;8.596;2023-05-29T10:29:43;7.32;;;3.25;;
36303;SDS011;22335;49.800;8.596;2023-05-29T10:36:35;4.80;;;3.38;;
36303;SDS011;22335;49.800;8.596;2023-05-29T10:43:29;4.80;;;3.53;;
36303;SDS011;22335;49.800;8.596;2023-05-29T10:50:16;5.07;;;3.53;;
36303;SDS011;22335;49.800;8.596;2023-05-29T10:57:22;5.30;;;3.67;;
36303;SDS011;22335;49.800;8.596;2023-05-29T11:04:26;4.30;;;3.53;;
36303;SDS011;22335;49.800;8.596;2023-05-29T11:11:28;5.07;;;3.63;;
36303;SDS011;22335;49.800;8.596;2023-05-29T11:18:14;4.55;;;3.22;;
36303;SDS011;22335;49.800;8.596;2023-05-29T11:24:57;5.93;;;3.83;;
36303;SDS011;22335;49.800;8.596;2023-05-29T11:38:28;5.63;;;3.75;;
36303;SDS011;22335;49.800;8.596;2023-05-29T11:45:12;3.87;;;3.47;;
36303;SDS011;22335;49.800;8.596;2023-05-29T11:52:06;6.47;;;3.97;;
36303;SDS011;22335;49.800;8.596;2023-05-29T11:58:56;6.15;;;3.70;;
36303;SDS011;22335;49.800;8.596;2023-05-29T12:05:45;7.20;;;5.40;;
36303;SDS011;22335;49.800;8.596;2023-05-29T12:12:35;5.30;;;3.15;;
36303;SDS011;22335;49.800;8.596;2023-05-29T12:19:19;5.85;;;3.60;;
36303;SDS011;22335;49.800;8.596;2023-05-29T12:26:03;4.37;;;3.30;;
36303;SDS011;22335;49.800;8.596;2023-05-29T12:32:50;8.77;;;3.42;;
36303;SDS011;22335;49.800;8.596;2023-05-29T12:39:34;4.15;;;3.30;;
36303;SDS011;22335;49.800;8.596;2023-05-29T12:46:18;5.50;;;3.60;;
36303;SDS011;22335;49.800;8.596;2023-05-29T12:53:04;5.43;;;4.22;;
36303;SDS011;22335;49.800;8.596;2023-05-29T12:59:49;6.03;;;4.80;;
36303;SDS011;22335;49.800;8.596;2023-05-29T13:06:33;5.43;;;3.88;;
36303;SDS011;22335;49.800;8.596;2023-05-29T13:13:18;3.50;;;3.20;;
36303;SDS011;22335;49.800;8.596;2023-05-29T13:20:03;5.55;;;3.30;;
36303;SDS011;22335;49.800;8.596;2023-05-29T13:26:49;5.55;;;3.30;;
36303;SDS011;22335;49.800;8.596;2023-05-29T13:33:34;5.45;;;4.82;;
36303;SDS011;22335;49.800;8.596;2023-05-29T13:40:17;4.03;;;3.40;;
36303;SDS011;22335;49.800;8.596;2023-05-29T13:47:01;5.07;;;3.80;;
36303;SDS011;22335;49.800;8.596;2023-05-29T13:53:46;4.22;;;3.10;;
36303;SDS011;22335;49.800;8.596;2023-05-29T14:00:29;5.32;;;3.22;;
36303;SDS011;22335;49.800;8.596;2023-05-29T14:07:13;4.25;;;3.60;;
36303;SDS011;22335;49.800;8.596;2023-05-29T14:13:58;5.10;;;3.43;;
36303;SDS011;22335;49.800;8.596;2023-05-29T14:20:41;6.18;;;3.53;;
36303;SDS011;22335;49.800;8.596;2023-05-29T14:27:29;6.47;;;3.47;;
36303;SDS011;22335;49.800;8.596;2023-05-29T14:34:14;4.63;;;3.50;;
36303;SDS011;22335;49.800;8.596;2023-05-29T14:40:57;5.13;;;3.80;;
36303;SDS011;22335;49.800;8.596;2023-05-29T14:47:48;5.93;;;3.70;;
36303;SDS011;22335;49.800;8.596;2023-05-29T14:54:33;7.60;;;3.65;;
36303;SDS011;22335;49.800;8.596;2023-05-29T15:01:17;4.68;;;3.63;;
36303;SDS011;22335;49.800;8.596;2023-05-29T15:08:01;5.85;;;3.70;;
36303;SDS011;22335;49.800;8.596;2023-05-29T15:14:46;4.60;;;3.60;;
36303;SDS011;22335;49.800;8.596;2023-05-29T15:21:33;6.60;;;3.80;;
36303;SDS011;22335;49.800;8.596;2023-05-29T15:28:16;5.43;;;4.15;;
36303;SDS011;22335;49.800;8.596;2023-05-29T15:35:01;5.60;;;3.65;;
36303;SDS011;22335;49.800;8.596;2023-05-29T15:41:45;5.97;;;4.07;;
36303;SDS011;22335;49.800;8.596;2023-05-29T15:48:29;8.73;;;4.93;;
36303;SDS011;22335;49.800;8.596;2023-05-29T15:55:14;7.00;;;3.85;;
36303;SDS011;22335;49.800;8.596;2023-05-29T16:01:57;5.75;;;4.25;;
36303;SDS011;22335;49.800;8.596;2023-05-29T16:08:41;7.47;;;4.80;;
36303;SDS011;22335;49.800;8.596;2023-05-29T16:15:26;5.80;;;3.70;;
36303;SDS011;22335;49.800;8.596;2023-05-29T16:28:53;4.95;;;3.65;;
36303;SDS011;22335;49.800;8.596;2023-05-29T16:35:38;4.67;;;3.80;;
36303;SDS011;22335;49.800;8.596;2023-05-29T16:49:05;7.68;;;4.65;;
36303;SDS011;22335;49.800;8.596;2023-05-29T16:55:50;9.65;;;3.92;;
36303;SDS011;22335;49.800;8.596;2023-05-29T17:02:33;8.95;;;4.10;;
36303;SDS011;22335;49.800;8.596;2023-05-29T17:09:17;4.78;;;3.58;;
36303;SDS011;22335;49.800;8.596;2023-05-29T17:16:04;8.35;;;4.28;;
36303;SDS011;22335;49.800;8.596;2023-05-29T17:22:48;5.82;;;3.80;;
36303;SDS011;22335;49.800;8.596;2023-05-29T17:29:32;8.40;;;4.18;;
36303;SDS011;22335;49.800;8.596;2023-05-29T17:36:17;4.45;;;3.33;;
36303;SDS011;22335;49.800;8.596;2023-05-29T17:43:00;7.88;;;3.95;;
36303;SDS011;22335;49.800;8.596;2023-05-29T17:49:44;6.50;;;4.30;;
36303;SDS011;22335;49.800;8.596;2023-05-29T17:56:29;5.38;;;3.63;;
36303;SDS011;22335;49.800;8.596;2023-05-29T18:03:14;7.18;;;3.78;;
36303;SDS011;22335;49.800;8.596;2023-05-29T18:09:58;7.07;;;4.25;;
36303;SDS011;22335;49.800;8.596;2023-05-29T18:16:43;8.98;;;4.20;;
36303;SDS011;22335;49.800;8.596;2023-05-29T18:23:26;6.80;;;4.13;;
36303;SDS011;22335;49.800;8.596;2023-05-29T18:30:10;6.10;;;3.85;;
36303;SDS011;22335;49.800;8.596;2023-05-29T18:43:40;6.03;;;4.00;;
36303;SDS011;22335;49.800;8.596;2023-05-29T18:50:23;6.10;;;3.88;;
36303;SDS011;22335;49.800;8.596;2023-05-29T18:57:08;5.97;;;4.05;;
36303;SDS011;22335;49.800;8.596;2023-05-29T19:03:52;8.30;;;5.20;;
36303;SDS011;22335;49.800;8.596;2023-05-29T19:10:35;8.27;;;4.60;;
36303;SDS011;22335;49.800;8.596;2023-05-29T19:17:23;5.35;;;4.15;;
36303;SDS011;22335;49.800;8.596;2023-05-29T19:30:50;6.47;;;3.85;;
36303;SDS011;22335;49.800;8.596;2023-05-29T19:37:35;6.30;;;3.70;;
36303;SDS011;22335;49.800;8.596;2023-05-29T19:44:18;5.10;;;4.00;;
36303;SDS011;22335;49.800;8.596;2023-05-29T19:51:02;6.25;;;3.75;;
36303;SDS011;22335;49.800;8.596;2023-05-29T19:57:47;6.15;;;3.60;;
36303;SDS011;22335;49.800;8.596;2023-05-29T20:04:31;5.80;;;3.50;;
36303;SDS011;22335;49.800;8.596;2023-05-29T20:11:16;9.32;;;4.05;;
36303;SDS011;22335;49.800;8.596;2023-05-29T20:18:02;6.82;;;3.72;;
36303;SDS011;22335;49.800;8.596;2023-05-29T20:24:45;6.25;;;3.95;;
36303;SDS011;22335;49.800;8.596;2023-05-29T20:31:29;9.18;;;4.30;;
36303;SDS011;22335;49.800;8.596;2023-05-29T20:38:14;7.38;;;4.45;;
36303;SDS011;22335;49.800;8.596;2023-05-29T20:44:57;6.57;;;3.50;;
36303;SDS011;22335;49.800;8.596;2023-05-29T20:51:41;6.72;;;3.75;;
36303;SDS011;22335;49.800;8.596;2023-05-29T20:58:25;8.80;;;4.18;;
36303;SDS011;22335;49.800;8.596;2023-05-29T21:05:09;5.40;;;3.70;;
36303;SDS011;22335;49.800;8.596;2023-05-29T21:11:52;8.35;;;4.03;;
36303;SDS011;22335;49.800;8.596;2023-05-29T21:18:38;8.05;;;3.50;;
36303;SDS011;22335;49.800;8.596;2023-05-29T21:25:21;6.97;;;4.50;;
36303;SDS011;22335;49.800;8.596;2023-05-29T21:32:05;6.95;;;3.50;;
36303;SDS011;22335;49.800;8.596;2023-05-29T21:38:51;8.00;;;3.60;;
36303;SDS011;22335;49.800;8.596;2023-05-29T21:45:35;6.93;;;3.47;;
36303;SDS011;22335;49.800;8.596;2023-05-29T21:52:18;7.20;;;3.92;;
36303;SDS011;22335;49.800;8.596;2023-05-29T21:59:04;7.90;;;3.75;;
36303;SDS011;22335;49.800;8.596;2023-05-29T22:05:47;5.83;;;3.83;;
36303;SDS011;22335;49.800;8.596;2023-05-29T22:12:31;6.15;;;3.40;;
36303;SDS011;22335;49.800;8.596;2023-05-29T22:19:19;7.30;;;4.20;;
36303;SDS011;22335;49.800;8.596;2023-05-29T22:26:03;7.43;;;3.38;;
36303;SDS011;22335;49.800;8.596;2023-05-29T22:32:48;9.50;;;3.67;;
36303;SDS011;22335;49.800;8.596;2023-05-29T22:39:34;7.93;;;3.70;;
36303;SDS011;22335;49.800;8.596;2023-05-29T22:46:17;7.05;;;3.72;;
36303;SDS011;22335;49.800;8.596;2023-05-29T22:53:01;6.68;;;3.38;;
36303;SDS011;22335;49.800;8.596;2023-05-29T22:59:46;7.78;;;3.75;;
36303;SDS011;22335;49.800;8.596;2023-05-29T23:06:29;6.33;;;3.93;;
36303;SDS011;22335;49.800;8.596;2023-05-29T23:13:14;9.27;;;4.03;;
36303;SDS011;22335;49.800;8.596;2023-05-29T23:19:59;6.53;;;3.40;;
36303;SDS011;22335;49.800;8.596;2023-05-29T23:26:46;4.35;;;3.38;;
36303;SDS011;22335;49.800;8.596;2023-05-29T23:33:29;6.82;;;3.45;;
36303;SDS011;22335;49.800;8.596;2023-05-29T23:40:14;7.60;;;3.53;;
36303;SDS011;22335;49.800;8.596;2023-05-29T23:46:58;6.47;;;3.10;;
36303;SDS011;22335;49.800;8.596;2023-05-29T23:53:42;10.85;;;4.53;;
